地図

経路データ

SID SEASON NUMBER BASIN SUBBASIN NAME ISO_TIME NATURE LAT LON WMO_WIND WMO_PRES WMO_AGENCY TRACK_TYPE DIST2LAND LANDFALL IFLAG USA_AGENCY USA_ATCF_ID USA_LAT USA_LON USA_RECORD USA_STATUS USA_WIND USA_PRES USA_SSHS USA_R34_NE USA_R34_SE USA_R34_SW USA_R34_NW USA_R50_NE USA_R50_SE USA_R50_SW USA_R50_NW USA_R64_NE USA_R64_SE USA_R64_SW USA_R64_NW USA_POCI USA_ROCI USA_RMW USA_EYE TOKYO_LAT TOKYO_LON TOKYO_GRADE TOKYO_WIND TOKYO_PRES TOKYO_R50_DIR TOKYO_R50_LONG TOKYO_R50_SHORT TOKYO_R30_DIR TOKYO_R30_LONG TOKYO_R30_SHORT TOKYO_LAND CMA_LAT CMA_LON CMA_CAT CMA_WIND CMA_PRES HKO_LAT HKO_LON HKO_CAT HKO_WIND HKO_PRES NEWDELHI_LAT NEWDELHI_LON NEWDELHI_GRADE NEWDELHI_WIND NEWDELHI_PRES NEWDELHI_CI NEWDELHI_DP NEWDELHI_POCI REUNION_LAT REUNION_LON REUNION_TYPE REUNION_WIND REUNION_PRES REUNION_TNUM REUNION_CI REUNION_RMW REUNION_R34_NE REUNION_R34_SE REUNION_R34_SW REUNION_R34_NW REUNION_R50_NE REUNION_R50_SE REUNION_R50_SW REUNION_R50_NW REUNION_R64_NE REUNION_R64_SE REUNION_R64_SW REUNION_R64_NW BOM_LAT BOM_LON BOM_TYPE BOM_WIND BOM_PRES BOM_TNUM BOM_CI BOM_RMW BOM_R34_NE BOM_R34_SE BOM_R34_SW BOM_R34_NW BOM_R50_NE BOM_R50_SE BOM_R50_SW BOM_R50_NW BOM_R64_NE BOM_R64_SE BOM_R64_SW BOM_R64_NW BOM_ROCI BOM_POCI BOM_EYE BOM_POS_METHOD BOM_PRES_METHOD NADI_LAT NADI_LON NADI_CAT NADI_WIND NADI_PRES WELLINGTON_LAT WELLINGTON_LON WELLINGTON_WIND WELLINGTON_PRES DS824_LAT DS824_LON DS824_STAGE DS824_WIND DS824_PRES TD9636_LAT TD9636_LON TD9636_STAGE TD9636_WIND TD9636_PRES TD9635_LAT TD9635_LON TD9635_WIND TD9635_PRES TD9635_ROCI NEUMANN_LAT NEUMANN_LON NEUMANN_CLASS NEUMANN_WIND NEUMANN_PRES MLC_LAT MLC_LON MLC_CLASS MLC_WIND MLC_PRES USA_GUST BOM_GUST BOM_GUST_PER REUNION_GUST REUNION_GUST_PER USA_SEAHGT USA_SEARAD_NE USA_SEARAD_SE USA_SEARAD_SW USA_SEARAD_NW STORM_SPEED STORM_DIR
1909290N14126 1909 59 WP MM NOT_NAMED 1909-10-16 16:00:00 NR 13.9000 125.800 main 151 108 __________O___ -1 13.9000 125.800 7 12 291
1909290N14126 1909 59 WP MM NOT_NAMED 1909-10-16 18:00:00 NR 14.0380 125.425 main 108 63 __________P___ -1 14.0380 125.425 7 12 291
1909290N14126 1909 59 WP MM NOT_NAMED 1909-10-16 21:00:00 NR 14.2552 124.852 main 70 46 __________P___ -1 14.2552 124.852 7 12 292
1909290N14126 1909 59 WP MM NOT_NAMED 1909-10-17 00:00:00 NR 14.5003 124.256 main 55 55 __________P___ -1 14.5003 124.256 7 13 294
1909290N14126 1909 59 WP MM NOT_NAMED 1909-10-17 03:00:00 NR 14.7903 123.622 main 95 92 __________P___ -1 14.7903 123.622 7 14 296
1909290N14126 1909 59 WP MM NOT_NAMED 1909-10-17 04:00:00 NR 14.9000 123.400 main 95 89 __________O___ -1 14.9000 123.400 4 15 298
1909290N14126 1909 59 WP MM NOT_NAMED 1909-10-17 06:00:00 NR 15.1403 122.938 main 100 59 __________P___ -1 15.1403 122.938 4 16 299
1909290N14126 1909 59 WP MM NOT_NAMED 1909-10-17 09:00:00 NR 15.5389 122.212 main 59 0 __________P___ -1 15.5389 122.212 4 16 300
1909290N14126 1909 59 WP MM NOT_NAMED 1909-10-17 12:00:00 NR 15.9579 121.471 main 0 0 __________P___ -1 15.9579 121.471 4 16 300
1909290N14126 1909 59 WP MM NOT_NAMED 1909-10-17 15:00:00 NR 16.3693 120.738 main 0 0 __________P___ -1 16.3693 120.738 4 16 300
1909290N14126 1909 59 WP MM NOT_NAMED 1909-10-17 16:00:00 NR 16.5000 120.500 main 0 0 __________O___ -1 16.5000 120.500 4 15 298
1909290N14126 1909 59 WP MM NOT_NAMED 1909-10-17 18:00:00 NR 16.7308 120.031 main 33 33 __________P___ -1 16.7308 120.031 4 15 297
1909290N14126 1909 59 WP MM NOT_NAMED 1909-10-17 21:00:00 NR 17.0585 119.345 main 104 104 __________P___ -1 17.0585 119.345 4 14 297
1909290N14126 1909 59 WP MM NOT_NAMED 1909-10-18 00:00:00 NR 17.3748 118.694 main 169 169 __________P___ -1 17.3748 118.694 4 14 298
1909290N14126 1909 59 WP MM NOT_NAMED 1909-10-18 03:00:00 NR 17.6919 118.089 main 233 233 __________P___ -1 17.6919 118.089 4 13 299
1909290N14126 1909 59 WP MM NOT_NAMED 1909-10-18 04:00:00 NR 17.8000 117.900 main 255 255 __________O___ -1 17.8000 117.900 4 13 303
1909290N14126 1909 59 WP MM NOT_NAMED 1909-10-18 06:00:00 NR 18.0322 117.538 main 299 301 __________P___ -1 18.0322 117.538 4 12 306
1909290N14126 1909 59 WP MM NOT_NAMED 1909-10-18 09:00:00 NR 18.3874 117.039 main 360 360 __________P___ -1 18.3874 117.039 4 12 308
1909290N14126 1909 59 WP MM NOT_NAMED 1909-10-18 12:00:00 NR 18.7428 116.579 main 409 400 __________P___ -1 18.7428 116.579 4 11 310
1909290N14126 1909 59 WP MM NOT_NAMED 1909-10-18 15:00:00 NR 19.0885 116.143 main 400 386 __________P___ -1 19.0885 116.143 4 11 310
1909290N14126 1909 59 WP MM NOT_NAMED 1909-10-18 16:00:00 NR 19.2000 116.000 main 386 355 __________O___ -1 19.2000 116.000 4 11 307
1909290N14126 1909 59 WP MM NOT_NAMED 1909-10-18 18:00:00 NR 19.4060 115.692 main 355 305 __________P___ -1 19.4060 115.692 4 11 305
1909290N14126 1909 59 WP MM NOT_NAMED 1909-10-18 21:00:00 NR 19.7025 115.242 main 305 262 __________P___ -1 19.7025 115.242 4 10 306
1909290N14126 1909 59 WP MM NOT_NAMED 1909-10-19 00:00:00 NR 19.9950 114.816 main 262 223 __________P___ -1 19.9950 114.816 4 10 308
1909290N14126 1909 59 WP MM NOT_NAMED 1909-10-19 03:00:00 NR 20.2957 114.422 main 223 212 __________P___ -1 20.2957 114.422 4 9 310
1909290N14126 1909 59 WP MM NOT_NAMED 1909-10-19 04:00:00 NR 20.4000 114.300 main 212 184 __________O___ -1 20.4000 114.300 4 9 314
1909290N14126 1909 59 WP MM NOT_NAMED 1909-10-19 06:00:00 NR 20.6136 114.076 main 184 139 __________P___ -1 20.6136 114.076 4 9 318
1909290N14126 1909 59 WP MM NOT_NAMED 1909-10-19 09:00:00 NR 20.9468 113.772 main 139 84 __________P___ -1 20.9468 113.772 4 9 321
1909290N14126 1909 59 WP MM NOT_NAMED 1909-10-19 12:00:00 NR 21.2981 113.487 main 84 30 __________P___ -1 21.2981 113.487 4 9 324
1909290N14126 1909 59 WP MM NOT_NAMED 1909-10-19 15:00:00 NR 21.6706 113.200 main 30 15 __________P___ -1 21.6706 113.200 4 9 324
1909290N14126 1909 59 WP MM NOT_NAMED 1909-10-19 16:00:00 NR 21.8000 113.100 main 15 0 __________O___ -1 21.8000 113.100 4 10 324
1909290N14126 1909 59 WP MM NOT_NAMED 1909-10-19 18:00:00 NR 22.0668 112.890 main 0 0 __________P___ -1 22.0668 112.890 4 10 323
1909290N14126 1909 59 WP MM NOT_NAMED 1909-10-19 21:00:00 NR 22.4836 112.552 main 0 0 __________P___ -1 22.4836 112.552 4 11 323
1909290N14126 1909 59 WP MM NOT_NAMED 1909-10-20 00:00:00 NR 22.9146 112.195 main 0 0 __________P___ -1 22.9146 112.195 4 11 322
1909290N14126 1909 59 WP MM NOT_NAMED 1909-10-20 03:00:00 NR 23.3532 111.825 main 0 0 __________P___ -1 23.3532 111.825 4 11 322
1909290N14126 1909 59 WP MM NOT_NAMED 1909-10-20 04:00:00 NR 23.5000 111.700 main 0 __________O___ -1 23.5000 111.700 7 11 322

デジタル台風データ・検索

IBTrACS Databaseについて

本データベースは、米国NOAAが公開する1842年以降の世界の熱帯低気圧のベストトラックデータアーカイブInternational Best Track Archive for Climate Stewardship (IBTrACS)を、ウェブで閲覧しやすい形式に変換したものです。

最終更新日:2021-11-26